createdAt,value
2018-05-29T00:00:55.608Z,84.06
2018-05-29T00:01:55.521Z,84.21
2018-05-29T00:02:55.510Z,83.83
2018-05-29T00:03:55.501Z,84.01
2018-05-29T00:04:55.488Z,84.41
2018-05-29T00:05:55.488Z,84.41
2018-05-29T00:06:55.455Z,84.89
2018-05-29T00:07:55.453Z,85.08
2018-05-29T00:08:55.435Z,84.98
2018-05-29T00:09:55.430Z,85.08
2018-05-29T00:10:55.411Z,84.98
2018-05-29T00:11:55.408Z,84.98
2018-05-29T00:12:55.384Z,84.98
2018-05-29T00:13:55.377Z,84.41
2018-05-29T00:14:55.369Z,84.69
2018-05-29T00:15:55.344Z,85.08
2018-05-29T00:16:55.328Z,85.17
2018-05-29T00:17:55.345Z,85.08
2018-05-29T00:18:55.304Z,85.08
2018-05-29T00:19:55.320Z,85.37
2018-05-29T00:20:55.279Z,84.98
2018-05-29T00:21:55.274Z,84.98
2018-05-29T00:22:55.278Z,85.46
2018-05-29T00:23:55.253Z,85.17
2018-05-29T00:24:55.229Z,85.37
2018-05-29T00:25:55.245Z,85.85
2018-05-29T00:26:55.247Z,85.85
2018-05-29T00:27:55.234Z,85.23
2018-05-29T00:28:55.205Z,86.10
2018-05-29T00:29:55.178Z,85.08
2018-05-29T00:30:55.150Z,85.17
2018-05-29T00:31:55.148Z,85.52
2018-05-29T00:32:55.130Z,85.91
2018-05-29T00:33:55.132Z,85.85
2018-05-29T00:34:55.112Z,85.33
2018-05-29T00:35:55.090Z,85.81
2018-05-29T00:36:55.115Z,85.66
2018-05-29T00:37:55.088Z,85.91
2018-05-29T00:38:55.049Z,85.81
2018-05-29T00:39:55.051Z,86.00
2018-05-29T00:40:55.032Z,86.48
2018-05-29T00:41:55.017Z,86.29
2018-05-29T00:42:55.013Z,86.68
2018-05-29T00:43:54.999Z,87.06
2018-05-29T00:44:54.971Z,86.96
2018-05-29T00:45:54.972Z,86.48
2018-05-29T00:46:54.961Z,86.19
2018-05-29T00:47:54.935Z,86.29
2018-05-29T00:48:54.930Z,86.77
2018-05-29T00:49:54.916Z,86.58
2018-05-29T00:50:54.904Z,86.77
2018-05-29T00:51:54.914Z,86.68
2018-05-29T00:52:54.885Z,87.16
2018-05-29T00:53:54.858Z,86.96
2018-05-29T00:54:54.847Z,86.58
2018-05-29T00:55:54.839Z,86.96
2018-05-29T00:56:54.828Z,87.16
2018-05-29T00:57:54.839Z,86.96
2018-05-29T00:58:54.828Z,87.26
2018-05-29T00:59:54.798Z,87.16
2018-05-29T01:00:54.779Z,87.06
2018-05-29T01:01:54.754Z,87.16
2018-05-29T01:02:54.739Z,87.45
2018-05-29T01:03:54.729Z,87.35
2018-05-29T01:04:54.731Z,87.64
2018-05-29T01:05:57.443Z,87.74
2018-05-29T01:06:54.707Z,87.35
2018-05-29T01:07:54.701Z,86.96
2018-05-29T01:08:54.659Z,87.06
2018-05-29T01:09:54.671Z,86.96
2018-05-29T01:10:54.655Z,86.87
2018-05-29T01:11:54.635Z,87.35
2018-05-29T01:12:54.627Z,87.60
2018-05-29T01:13:54.603Z,87.30
2018-05-29T01:14:54.585Z,87.40
2018-05-29T01:15:54.591Z,87.70
2018-05-29T01:16:54.590Z,88.08
2018-05-29T01:17:54.548Z,88.17
2018-05-29T01:18:54.546Z,88.08
2018-05-29T01:19:54.524Z,88.85
2018-05-29T01:20:54.504Z,88.56
2018-05-29T01:21:54.511Z,88.65
2018-05-29T01:22:54.491Z,89.04
2018-05-29T01:23:54.481Z,88.75
2018-05-29T01:24:54.470Z,88.75
2018-05-29T01:25:54.437Z,88.65
2018-05-29T01:26:54.423Z,88.37
2018-05-29T01:27:54.411Z,88.37
2018-05-29T01:28:54.423Z,88.37
2018-05-29T01:29:54.389Z,88.65
2018-05-29T01:30:54.367Z,88.75
2018-05-29T01:31:54.381Z,88.37
2018-05-29T01:32:54.384Z,88.37
2018-05-29T01:33:54.353Z,88.46
2018-05-29T01:34:54.338Z,88.95
2018-05-29T01:35:54.305Z,88.65
2018-05-29T01:36:54.310Z,88.65
2018-05-29T01:37:54.283Z,89.14
2018-05-29T01:38:54.278Z,89.04
2018-05-29T01:39:54.251Z,88.95
2018-05-29T01:40:54.238Z,88.65
2018-05-29T01:41:54.226Z,89.14
2018-05-29T01:42:54.237Z,89.14
2018-05-29T01:43:54.220Z,89.29
2018-05-29T01:44:54.217Z,89.19
2018-05-29T01:45:54.217Z,89.43
2018-05-29T01:46:54.183Z,89.53
2018-05-29T01:47:54.154Z,89.23
2018-05-29T01:48:54.136Z,89.29
2018-05-29T01:49:54.152Z,89.72
2018-05-29T01:50:54.104Z,89.77
2018-05-29T01:51:54.086Z,90.16
2018-05-29T01:52:54.079Z,90.06
2018-05-29T01:53:54.060Z,90.16
2018-05-29T01:54:54.052Z,90.39
2018-05-29T01:55:54.035Z,90.00
2018-05-29T01:56:54.024Z,89.67
2018-05-29T01:57:54.009Z,90.10
2018-05-29T01:58:54.022Z,90.34
2018-05-29T01:59:53.995Z,89.96
2018-05-29T02:00:53.990Z,89.91
2018-05-29T02:01:53.957Z,89.86
2018-05-29T02:02:53.948Z,90.34
2018-05-29T02:03:53.935Z,89.96
2018-05-29T02:04:53.921Z,90.16
2018-05-29T02:05:53.926Z,89.77
2018-05-29T02:06:53.912Z,90.34
2018-05-29T02:07:53.900Z,90.25
2018-05-29T02:08:53.869Z,89.96
2018-05-29T02:09:53.872Z,89.86
2018-05-29T02:10:53.861Z,90.16
2018-05-29T02:11:53.827Z,90.44
2018-05-29T02:12:53.804Z,90.16
2018-05-29T02:13:53.792Z,90.06
2018-05-29T02:14:53.780Z,90.73
2018-05-29T02:15:53.776Z,90.83
2018-05-29T02:16:53.749Z,90.73
2018-05-29T02:17:53.729Z,90.83
2018-05-29T02:18:53.720Z,91.02
2018-05-29T02:19:53.717Z,90.83
2018-05-29T02:20:53.718Z,91.12
2018-05-29T02:21:53.684Z,90.64
2018-05-29T02:22:53.686Z,90.44
2018-05-29T02:23:53.670Z,90.64
2018-05-29T02:24:53.646Z,91.02
2018-05-29T02:25:53.637Z,91.02
2018-05-29T02:26:53.610Z,90.54
2018-05-29T02:27:53.609Z,90.83
2018-05-29T02:28:53.586Z,90.34
2018-05-29T02:29:53.569Z,90.92
2018-05-29T02:30:53.561Z,90.83
2018-05-29T02:31:53.541Z,90.73
2018-05-29T02:32:53.541Z,90.73
2018-05-29T02:33:53.527Z,90.73
2018-05-29T02:34:53.508Z,90.88
2018-05-29T02:35:53.494Z,90.88
2018-05-29T02:36:53.472Z,91.36
2018-05-29T02:37:53.463Z,91.36
2018-05-29T02:38:53.452Z,91.27
2018-05-29T02:39:53.435Z,91.17
2018-05-29T02:40:53.428Z,90.97
2018-05-29T02:41:53.410Z,91.12
2018-05-29T02:42:53.385Z,91.55
2018-05-29T02:43:53.385Z,91.17
2018-05-29T02:44:53.361Z,91.27
2018-05-29T02:45:53.354Z,91.27
2018-05-29T02:46:53.344Z,91.07
2018-05-29T02:47:53.324Z,91.36
2018-05-29T02:48:53.308Z,91.27
2018-05-29T02:49:53.295Z,91.17
2018-05-29T02:50:53.277Z,91.07
2018-05-29T02:51:53.284Z,91.46
2018-05-29T02:52:53.252Z,91.27
2018-05-29T02:53:53.261Z,91.75
2018-05-29T02:54:53.262Z,91.17
2018-05-29T02:55:53.226Z,91.36
2018-05-29T02:56:53.208Z,91.36
2018-05-29T02:57:53.193Z,91.36
2018-05-29T02:58:53.174Z,91.94
2018-05-29T02:59:53.152Z,91.36
2018-05-29T03:00:53.142Z,91.55
2018-05-29T03:01:53.127Z,91.65
2018-05-29T03:02:53.115Z,91.55
2018-05-29T03:03:53.104Z,91.46
2018-05-29T03:04:53.083Z,91.65
2018-05-29T03:05:53.077Z,91.75
2018-05-29T03:06:53.090Z,91.46
2018-05-29T03:07:53.052Z,92.32
2018-05-29T03:08:53.036Z,91.65
2018-05-29T03:09:53.026Z,91.84
2018-05-29T03:10:52.999Z,92.03
2018-05-29T03:11:52.980Z,91.65
2018-05-29T03:12:52.976Z,91.94
2018-05-29T03:13:52.970Z,91.75
2018-05-29T03:14:52.948Z,91.65
2018-05-29T03:15:52.953Z,92.32
2018-05-29T03:16:52.912Z,91.55
2018-05-29T03:17:52.915Z,92.13
2018-05-29T03:18:52.895Z,92.22
2018-05-29T03:19:52.875Z,92.61
2018-05-29T03:20:52.907Z,92.32
2018-05-29T03:21:52.844Z,92.52
2018-05-29T03:22:52.845Z,92.52
2018-05-29T03:23:52.817Z,92.52
2018-05-29T03:24:52.804Z,92.71
2018-05-29T03:25:52.789Z,92.32
2018-05-29T03:26:52.776Z,92.22
2018-05-29T03:27:52.755Z,92.32
2018-05-29T03:28:52.746Z,92.71
2018-05-29T03:29:52.734Z,92.95
2018-05-29T03:30:52.723Z,93.15
2018-05-29T03:31:52.730Z,92.52
2018-05-29T03:32:52.685Z,92.95
2018-05-29T03:33:52.674Z,92.80
2018-05-29T03:34:52.671Z,92.61
2018-05-29T03:35:52.650Z,92.22
2018-05-29T03:36:52.632Z,92.80
2018-05-29T03:37:52.641Z,92.71
2018-05-29T03:38:52.643Z,92.66
2018-05-29T03:39:52.593Z,92.76
2018-05-29T03:40:52.580Z,92.57
2018-05-29T03:41:52.573Z,92.38
2018-05-29T03:42:52.553Z,92.52
2018-05-29T03:43:52.539Z,92.76
2018-05-29T03:44:52.545Z,92.52
2018-05-29T03:45:52.507Z,92.90
2018-05-29T03:46:52.493Z,92.57
2018-05-29T03:47:52.477Z,92.66
2018-05-29T03:48:52.464Z,92.76
2018-05-29T03:49:52.486Z,93.05
2018-05-29T03:50:52.431Z,92.80
2018-05-29T03:51:52.420Z,92.66
2018-05-29T03:52:52.407Z,92.95
2018-05-29T03:53:52.438Z,93.00
2018-05-29T03:54:52.375Z,92.76
2018-05-29T03:55:52.362Z,92.66
2018-05-29T03:56:52.367Z,92.95
2018-05-29T03:57:52.331Z,93.19
2018-05-29T03:58:52.347Z,92.76
2018-05-29T03:59:52.309Z,92.80
2018-05-29T04:00:52.284Z,93.05
2018-05-29T04:01:52.279Z,92.71
2018-05-29T04:02:52.268Z,92.90
2018-05-29T04:03:52.258Z,93.33
2018-05-29T04:04:52.232Z,92.85
2018-05-29T04:05:52.214Z,92.95
2018-05-29T04:06:52.208Z,92.80
2018-05-29T04:07:52.201Z,93.15
2018-05-29T04:08:52.181Z,92.57
2018-05-29T04:09:52.168Z,92.80
2018-05-29T04:10:52.147Z,92.90
2018-05-29T04:11:52.141Z,92.47
2018-05-29T04:12:52.119Z,92.85
2018-05-29T04:13:52.106Z,92.66
2018-05-29T04:14:52.092Z,92.80
2018-05-29T04:15:52.136Z,92.95
2018-05-29T04:16:52.067Z,92.80
2018-05-29T04:17:52.052Z,92.85
2018-05-29T04:18:52.029Z,92.85
2018-05-29T04:19:52.018Z,92.61
2018-05-29T04:20:52.017Z,92.85
2018-05-29T04:21:52.005Z,92.80
2018-05-29T04:22:51.985Z,92.71
2018-05-29T04:23:51.970Z,92.80
2018-05-29T04:24:51.944Z,92.52
2018-05-29T04:25:51.940Z,92.71
2018-05-29T04:26:51.921Z,92.90
2018-05-29T04:27:51.907Z,92.90
2018-05-29T04:28:51.908Z,92.80
2018-05-29T04:29:51.892Z,92.80
2018-05-29T04:30:51.862Z,92.71
2018-05-29T04:31:51.856Z,92.22
2018-05-29T04:32:51.841Z,92.22
2018-05-29T04:33:51.820Z,92.32
2018-05-29T04:34:51.817Z,92.32
2018-05-29T04:35:51.800Z,91.65
2018-05-29T04:36:51.799Z,92.52
2018-05-29T04:37:51.766Z,92.22
2018-05-29T04:38:51.757Z,91.84
2018-05-29T04:39:51.743Z,91.36
2018-05-29T04:40:51.726Z,91.46
2018-05-29T04:41:51.712Z,91.94
2018-05-29T04:42:51.699Z,91.75
2018-05-29T04:43:51.685Z,91.75
2018-05-29T04:44:51.681Z,91.69
2018-05-29T04:45:51.655Z,91.84
2018-05-29T04:46:51.649Z,91.69
2018-05-29T04:47:51.639Z,91.75
2018-05-29T04:48:51.638Z,91.75
2018-05-29T04:49:51.597Z,91.07
2018-05-29T04:50:51.590Z,91.12
2018-05-29T04:51:51.588Z,91.41
2018-05-29T04:52:51.555Z,91.41
2018-05-29T04:53:51.557Z,91.41
2018-05-29T04:54:51.533Z,90.54
2018-05-29T04:55:51.523Z,91.31
2018-05-29T04:56:51.507Z,90.73
2018-05-29T04:57:51.495Z,90.83
2018-05-29T04:58:51.481Z,90.73
2018-05-29T04:59:51.464Z,91.02
2018-05-29T05:00:51.451Z,90.16
2018-05-29T05:01:51.437Z,90.25
2018-05-29T05:02:51.445Z,89.96
2018-05-29T05:03:51.409Z,91.12
2018-05-29T05:04:51.388Z,90.83
2018-05-29T05:05:51.379Z,91.12
2018-05-29T05:06:51.370Z,90.73
2018-05-29T05:07:51.353Z,91.50
2018-05-29T05:08:51.354Z,90.83
2018-05-29T05:09:51.333Z,90.92
2018-05-29T05:10:51.311Z,90.92
2018-05-29T05:11:51.299Z,90.92
2018-05-29T05:12:51.284Z,91.12
2018-05-29T05:13:51.279Z,91.41
2018-05-29T05:14:51.260Z,91.31
2018-05-29T05:15:51.246Z,90.83
2018-05-29T05:16:51.233Z,90.83
2018-05-29T05:17:51.218Z,90.73
2018-05-29T05:18:51.203Z,91.31
2018-05-29T05:19:51.194Z,90.92
2018-05-29T05:20:51.187Z,91.02
2018-05-29T05:21:51.164Z,90.64
2018-05-29T05:22:51.153Z,91.41
2018-05-29T05:23:51.139Z,91.21
2018-05-29T05:24:51.127Z,91.41
2018-05-29T05:25:51.113Z,90.88
2018-05-29T05:26:51.101Z,90.68
2018-05-29T05:27:51.084Z,91.12
2018-05-29T05:28:51.075Z,91.06
2018-05-29T05:29:51.059Z,90.97
2018-05-29T05:30:51.043Z,91.36
2018-05-29T05:31:51.030Z,91.45
2018-05-29T05:32:51.019Z,90.88
2018-05-29T05:33:51.005Z,91.16
2018-05-29T05:34:50.990Z,90.78
2018-05-29T05:35:50.976Z,91.06
2018-05-29T05:36:50.964Z,90.78
2018-05-29T05:37:50.960Z,90.48
2018-05-29T05:38:50.939Z,90.58
2018-05-29T05:39:50.923Z,90.20
2018-05-29T05:40:50.913Z,89.81
2018-05-29T05:41:50.899Z,89.62
2018-05-29T05:42:51.010Z,89.81
2018-05-29T05:43:50.874Z,89.53
2018-05-29T05:44:50.858Z,89.72
2018-05-29T05:45:50.847Z,89.37
2018-05-29T05:46:50.834Z,89.18
2018-05-29T05:47:50.821Z,88.41
2018-05-29T05:48:50.809Z,88.70
2018-05-29T05:49:50.795Z,88.41
2018-05-29T05:50:50.787Z,88.45
2018-05-29T05:51:50.773Z,88.89
2018-05-29T05:52:50.775Z,88.31
2018-05-29T05:53:50.747Z,87.74
2018-05-29T05:54:50.731Z,87.45
2018-05-29T05:55:50.719Z,87.83
2018-05-29T05:56:50.706Z,87.54
2018-05-29T05:57:50.698Z,88.07
2018-05-29T05:58:50.681Z,87.93
2018-05-29T05:59:50.668Z,87.45
2018-05-29T06:00:50.659Z,87.26
2018-05-29T06:01:50.641Z,87.35
2018-05-29T06:02:50.636Z,88.02
2018-05-29T06:03:50.621Z,88.22
2018-05-29T06:04:50.720Z,88.12
2018-05-29T06:05:50.589Z,88.12
2018-05-29T06:06:50.577Z,88.22
2018-05-29T06:07:50.578Z,88.26
2018-05-29T06:08:50.591Z,87.93
2018-05-29T06:09:50.688Z,88.79
2018-05-29T06:10:50.547Z,88.41
2018-05-29T06:11:50.590Z,89.09
2018-05-29T06:12:50.573Z,89.09
2018-05-29T06:13:50.500Z,90.05
2018-05-29T06:14:50.501Z,89.95
2018-05-29T06:15:50.473Z,90.34
2018-05-29T06:16:50.456Z,89.76
2018-05-29T06:17:50.445Z,90.48
2018-05-29T06:18:50.435Z,89.42
2018-05-29T06:19:50.444Z,88.65
2018-05-29T06:20:50.403Z,88.59
2018-05-29T06:21:50.395Z,88.11
2018-05-29T06:22:50.394Z,87.29
2018-05-29T06:23:50.364Z,86.03
2018-05-29T06:24:50.357Z,84.24
2018-05-29T06:25:50.352Z,83.37
2018-05-29T06:26:50.347Z,82.79
2018-05-29T06:27:50.336Z,82.35
2018-05-29T06:28:50.321Z,80.90
2018-05-29T06:29:50.308Z,80.07
2018-05-29T06:30:50.305Z,79.20
2018-05-29T06:31:50.299Z,80.07
2018-05-29T06:32:50.350Z,79.04
2018-05-29T06:33:50.277Z,80.59
2018-05-29T06:34:50.269Z,79.04
2018-05-29T06:35:50.259Z,79.82
2018-05-29T06:36:50.250Z,78.75
2018-05-29T06:37:50.241Z,77.30
2018-05-29T06:38:50.234Z,79.27
2018-05-29T06:39:50.233Z,78.66
2018-05-29T06:40:50.218Z,78.11
2018-05-29T06:41:50.211Z,79.27
2018-05-29T06:42:50.204Z,79.08
2018-05-29T06:43:50.196Z,77.92
2018-05-29T06:44:50.206Z,78.11
2018-05-29T06:45:50.230Z,78.41
2018-05-29T06:46:50.178Z,78.79
2018-05-29T06:47:50.176Z,79.17
2018-05-29T06:48:50.167Z,78.79
2018-05-29T06:49:50.162Z,80.19
2018-05-29T06:50:50.154Z,79.02
2018-05-29T06:51:50.147Z,77.57
2018-05-29T06:52:50.143Z,76.31
2018-05-29T06:53:50.139Z,76.02
2018-05-29T06:54:50.132Z,75.83
2018-05-29T06:55:50.127Z,76.41
2018-05-29T06:56:50.123Z,75.87
2018-05-29T06:57:50.122Z,74.80
2018-05-29T06:58:50.114Z,74.22
2018-05-29T06:59:50.112Z,75.19
2018-05-29T07:00:50.105Z,75.87
2018-05-29T07:01:50.106Z,77.90
2018-05-29T07:02:50.097Z,78.38
2018-05-29T07:03:50.131Z,77.06
2018-05-29T07:04:50.089Z,76.62
2018-05-29T07:05:50.092Z,75.26
2018-05-29T07:06:50.085Z,74.29
2018-05-29T07:07:50.081Z,72.16
2018-05-29T07:08:50.074Z,71.51
2018-05-29T07:09:50.079Z,71.61
2018-05-29T07:10:50.083Z,72.29
2018-05-29T07:11:50.070Z,72.33
2018-05-29T07:12:50.066Z,71.45
2018-05-29T07:13:50.065Z,72.42
2018-05-29T07:14:50.059Z,72.81
2018-05-29T07:15:50.063Z,71.94
2018-05-29T07:16:50.055Z,71.10
2018-05-29T07:17:50.051Z,68.54
2018-05-29T07:18:50.049Z,68.96
2018-05-29T07:19:50.059Z,69.15
2018-05-29T07:20:50.041Z,66.14
2018-05-29T07:21:50.039Z,65.75
2018-05-29T07:22:50.034Z,66.05
2018-05-29T07:23:50.030Z,65.89
2018-05-29T07:24:50.028Z,67.63
2018-05-29T07:25:50.027Z,66.37
2018-05-29T07:26:50.019Z,67.24
2018-05-29T07:27:50.012Z,66.17
2018-05-29T07:28:50.015Z,64.91
2018-05-29T07:29:50.011Z,65.98
2018-05-29T07:30:50.002Z,65.63
2018-05-29T07:31:49.997Z,65.11
2018-05-29T07:32:49.991Z,65.40
2018-05-29T07:33:49.990Z,66.86
2018-05-29T07:34:49.987Z,65.79
2018-05-29T07:35:49.978Z,65.33
2018-05-29T07:36:49.968Z,66.02
2018-05-29T07:37:49.967Z,65.33
2018-05-29T07:38:49.982Z,64.95
2018-05-29T07:39:49.958Z,65.82
2018-05-29T07:40:49.959Z,65.75
2018-05-29T07:41:49.947Z,65.08
2018-05-29T07:42:49.934Z,66.24
2018-05-29T07:43:49.939Z,66.24
2018-05-29T07:44:49.922Z,65.37
2018-05-29T07:45:49.915Z,65.46
2018-05-29T07:46:49.912Z,64.20
2018-05-29T07:47:49.908Z,64.95
2018-05-29T07:48:49.906Z,66.40
2018-05-29T07:49:49.895Z,68.05
2018-05-29T07:50:49.900Z,66.11
2018-05-29T07:51:49.885Z,66.69
2018-05-29T07:52:49.873Z,66.02
2018-05-29T07:53:49.870Z,66.02
2018-05-29T07:54:49.863Z,65.08
2018-05-29T07:55:49.855Z,65.37
2018-05-29T07:56:49.921Z,66.14
2018-05-29T07:57:49.853Z,66.53
2018-05-29T07:58:49.848Z,64.78
2018-05-29T07:59:49.832Z,63.62
2018-05-29T08:00:49.823Z,64.59
2018-05-29T08:01:49.818Z,64.88
2018-05-29T08:02:49.809Z,64.20
2018-05-29T08:03:49.792Z,63.90
2018-05-29T08:04:49.804Z,65.46
2018-05-29T08:05:49.822Z,65.95
2018-05-29T08:07:50.051Z,64.42
2018-05-29T08:08:49.763Z,64.13
2018-05-29T08:09:49.764Z,65.20
2018-05-29T08:10:49.750Z,65.79
2018-05-29T08:11:49.755Z,65.50
2018-05-29T08:12:49.898Z,65.11
2018-05-29T08:13:49.739Z,66.17
2018-05-29T08:14:49.729Z,65.43
2018-05-29T08:15:49.721Z,64.94
2018-05-29T08:16:49.715Z,65.04
2018-05-29T08:17:49.710Z,64.55
2018-05-29T08:18:49.703Z,63.09
2018-05-29T08:19:49.690Z,62.41
2018-05-29T08:20:49.687Z,62.80
2018-05-29T08:21:49.684Z,62.83
2018-05-29T08:22:49.672Z,59.91
2018-05-29T08:23:49.678Z,58.61
2018-05-29T08:24:50.085Z,57.81
2018-05-29T08:25:51.094Z,61.70
2018-05-29T08:26:49.985Z,61.60
2018-05-29T08:27:49.638Z,61.99
2018-05-29T08:28:49.629Z,61.99
2018-05-29T08:29:49.619Z,60.44
2018-05-29T08:30:49.625Z,60.72
2018-05-29T08:31:49.625Z,59.07
2018-05-29T08:32:49.599Z,62.19
2018-05-29T08:33:49.598Z,59.36
2018-05-29T08:34:49.604Z,60.46
2018-05-29T08:35:49.609Z,60.08
2018-05-29T08:36:49.576Z,60.27
2018-05-29T08:37:49.573Z,61.51
2018-05-29T08:38:49.884Z,60.53
2018-05-29T08:39:49.569Z,62.32
2018-05-29T08:40:49.648Z,60.56
2018-05-29T08:41:49.545Z,60.46
2018-05-29T08:42:49.548Z,59.49
2018-05-29T08:43:49.552Z,61.15
2018-05-29T08:44:49.518Z,58.91
2018-05-29T08:45:49.516Z,58.69
2018-05-29T08:46:49.512Z,58.69
2018-05-29T08:47:49.500Z,59.27
2018-05-29T08:48:49.494Z,61.60
2018-05-29T08:49:49.490Z,60.53
2018-05-29T08:50:49.475Z,60.82
2018-05-29T08:51:49.509Z,59.98
2018-05-29T08:52:49.480Z,60.66
2018-05-29T08:53:49.459Z,59.23
2018-05-29T08:54:49.454Z,58.74
2018-05-29T08:55:49.438Z,58.35
2018-05-29T08:56:49.474Z,59.91
2018-05-29T08:57:49.439Z,58.74
2018-05-29T08:58:49.422Z,57.57
2018-05-29T08:59:49.426Z,58.97
2018-05-29T09:00:49.418Z,58.35
2018-05-29T09:01:49.412Z,57.89
2018-05-29T09:02:49.397Z,57.11
2018-05-29T09:03:49.405Z,57.40
2018-05-29T09:04:49.391Z,57.11
2018-05-29T09:05:49.650Z,56.72
2018-05-29T09:06:49.371Z,57.50
2018-05-29T09:07:49.440Z,56.72
2018-05-29T09:08:49.383Z,56.82
2018-05-29T09:09:49.369Z,55.65
2018-05-29T09:10:49.528Z,56.43
2018-05-29T09:11:49.429Z,54.87
2018-05-29T09:12:49.333Z,53.60
2018-05-29T09:13:49.328Z,53.50
2018-05-29T09:14:49.318Z,53.80
2018-05-29T09:15:49.321Z,53.99
2018-05-29T09:16:49.310Z,53.99
2018-05-29T09:17:49.297Z,54.87
2018-05-29T09:18:49.308Z,54.19
2018-05-29T09:19:49.305Z,53.89
2018-05-29T09:20:49.281Z,53.05
2018-05-29T09:21:49.270Z,53.53
2018-05-29T09:22:49.342Z,54.21
2018-05-29T09:23:49.257Z,54.31
2018-05-29T09:24:49.247Z,53.24
2018-05-29T09:25:49.246Z,52.46
2018-05-29T09:26:49.238Z,53.34
2018-05-29T09:27:49.231Z,52.75
2018-05-29T09:28:49.245Z,53.44
2018-05-29T09:29:49.296Z,54.02
2018-05-29T09:30:49.269Z,54.70
2018-05-29T09:31:49.206Z,55.09
2018-05-29T09:32:49.200Z,53.17
2018-05-29T09:33:49.206Z,54.21
2018-05-29T09:34:49.193Z,53.07
2018-05-29T09:35:49.180Z,54.34
2018-05-29T09:36:49.174Z,54.63
2018-05-29T09:37:49.169Z,54.63
2018-05-29T09:38:49.157Z,54.63
2018-05-29T09:39:49.153Z,54.63
2018-05-29T09:40:49.145Z,54.14
2018-05-29T09:41:49.153Z,56.00
2018-05-29T09:42:49.131Z,56.10
2018-05-29T09:43:49.126Z,55.22
2018-05-29T09:44:49.145Z,54.14
2018-05-29T09:45:49.174Z,54.27
2018-05-29T09:46:49.110Z,53.78
2018-05-29T09:47:49.097Z,54.05
2018-05-29T09:48:49.095Z,54.05
2018-05-29T09:49:49.088Z,55.71
2018-05-29T09:50:49.074Z,54.34
2018-05-29T09:51:49.077Z,54.24
2018-05-29T09:52:49.109Z,54.24
2018-05-29T09:53:49.082Z,55.54
2018-05-29T09:54:49.084Z,54.24
2018-05-29T09:55:49.059Z,52.68
2018-05-29T09:56:49.038Z,53.27
2018-05-29T09:57:49.049Z,53.36
2018-05-29T09:58:49.029Z,52.48
2018-05-29T09:59:49.037Z,53.46
2018-05-29T10:00:49.021Z,52.41
2018-05-29T10:01:49.014Z,52.58
2018-05-29T10:02:49.011Z,53.05
2018-05-29T10:03:49.003Z,54.80
2018-05-29T10:04:49.005Z,53.83
2018-05-29T10:05:48.996Z,53.89
2018-05-29T10:06:48.984Z,54.58
2018-05-29T10:07:48.974Z,55.36
2018-05-29T10:08:48.968Z,54.50
2018-05-29T10:09:48.974Z,56.26
2018-05-29T10:10:48.973Z,55.19
2018-05-29T10:11:48.950Z,54.60
2018-05-29T10:12:48.939Z,52.87
2018-05-29T10:13:48.951Z,52.78
2018-05-29T10:14:48.936Z,50.36
2018-05-29T10:15:48.922Z,51.41
2018-05-29T10:16:48.917Z,50.85
2018-05-29T10:17:48.909Z,53.09
2018-05-29T10:18:48.899Z,53.39
2018-05-29T10:19:48.893Z,52.41
2018-05-29T10:20:48.891Z,53.19
2018-05-29T10:21:48.898Z,52.12
2018-05-29T10:22:48.884Z,54.07
2018-05-29T10:23:48.877Z,52.73
2018-05-29T10:24:48.888Z,52.25
2018-05-29T10:25:48.865Z,50.68
2018-05-29T10:26:48.859Z,50.00
2018-05-29T10:27:48.853Z,49.80
2018-05-29T10:28:48.846Z,50.49
2018-05-29T10:29:48.831Z,50.10
2018-05-29T10:30:48.847Z,50.10
2018-05-29T10:31:48.832Z,52.08
2018-05-29T10:32:48.825Z,51.78
2018-05-29T10:33:48.825Z,51.98
2018-05-29T10:34:48.806Z,50.61
2018-05-29T10:35:48.805Z,52.08
2018-05-29T10:36:48.797Z,50.34
2018-05-29T10:37:48.789Z,50.44
2018-05-29T10:38:48.795Z,51.90
2018-05-29T10:39:48.777Z,51.32
2018-05-29T10:40:48.773Z,49.75
2018-05-29T10:41:48.769Z,50.44
2018-05-29T10:42:48.760Z,50.63
2018-05-29T10:43:48.755Z,50.83
2018-05-29T10:44:48.756Z,51.71
2018-05-29T10:45:48.760Z,50.15
2018-05-29T10:46:48.738Z,51.34
2018-05-29T10:47:48.745Z,49.95
2018-05-29T10:48:48.723Z,49.77
2018-05-29T10:49:48.724Z,50.05
2018-05-29T10:50:48.724Z,48.97
2018-05-29T10:51:48.713Z,49.55
2018-05-29T10:52:48.707Z,49.82
2018-05-29T10:53:48.700Z,50.63
2018-05-29T10:54:48.703Z,51.42
2018-05-29T10:55:48.688Z,52.29
2018-05-29T10:56:48.685Z,51.61
2018-05-29T10:57:48.682Z,50.07
2018-05-29T10:58:48.675Z,49.68
2018-05-29T10:59:48.670Z,49.48
2018-05-29T11:00:48.666Z,48.53
2018-05-29T11:01:48.658Z,48.99
2018-05-29T11:02:48.655Z,48.63
2018-05-29T11:03:48.659Z,48.21
2018-05-29T11:04:48.644Z,48.43
2018-05-29T11:05:48.641Z,48.72
2018-05-29T11:06:48.681Z,49.90
2018-05-29T11:07:48.629Z,49.51
2018-05-29T11:08:48.626Z,49.60
2018-05-29T11:09:48.615Z,50.10
2018-05-29T11:10:48.614Z,49.04
2018-05-29T11:11:48.609Z,48.46
2018-05-29T11:12:48.603Z,47.47
2018-05-29T11:13:48.603Z,47.87
2018-05-29T11:14:48.602Z,48.63
2018-05-29T11:15:48.594Z,47.67
2018-05-29T11:16:48.581Z,48.92
2018-05-29T11:17:48.583Z,48.53
2018-05-29T11:18:48.573Z,49.41
2018-05-29T11:19:48.572Z,47.55
2018-05-29T11:20:48.569Z,47.65
2018-05-29T11:21:48.559Z,48.94
2018-05-29T11:22:48.561Z,49.14
2018-05-29T11:23:48.546Z,48.46
2018-05-29T11:24:48.566Z,47.50
2018-05-29T11:25:48.544Z,46.13
2018-05-29T11:26:48.540Z,46.33
2018-05-29T11:27:48.543Z,47.69
2018-05-29T11:28:48.523Z,45.54
2018-05-29T11:29:48.550Z,45.54
2018-05-29T11:30:48.518Z,44.38
2018-05-29T11:31:48.513Z,43.12
2018-05-29T11:32:48.510Z,44.19
2018-05-29T11:33:48.507Z,43.41
2018-05-29T11:34:48.546Z,44.27
2018-05-29T11:35:48.498Z,44.17
2018-05-29T11:36:48.513Z,43.48
2018-05-29T11:37:48.489Z,44.17
2018-05-29T11:38:48.501Z,44.17
2018-05-29T11:39:48.480Z,44.95
2018-05-29T11:40:48.486Z,47.11
2018-05-29T11:41:48.478Z,45.95
2018-05-29T11:42:48.480Z,44.78
2018-05-29T11:43:48.472Z,44.68
2018-05-29T11:44:48.469Z,44.09
2018-05-29T11:45:48.458Z,44.17
2018-05-29T11:46:48.460Z,44.95
2018-05-29T11:47:48.455Z,44.05
2018-05-29T11:48:48.468Z,45.40
2018-05-29T11:49:48.461Z,44.71
2018-05-29T11:50:48.454Z,45.69
2018-05-29T11:51:48.438Z,47.24
2018-05-29T11:52:48.442Z,47.53
2018-05-29T11:53:48.434Z,48.70
2018-05-29T11:54:48.431Z,49.41
2018-05-29T11:55:48.427Z,47.75
2018-05-29T11:56:48.420Z,45.62
2018-05-29T11:57:48.420Z,45.81
2018-05-29T11:58:48.426Z,45.64
2018-05-29T11:59:48.403Z,44.66
2018-05-29T12:00:48.406Z,44.37
2018-05-29T12:01:48.438Z,44.66
2018-05-29T12:02:48.400Z,44.85
2018-05-29T12:03:48.400Z,44.29
2018-05-29T12:04:48.402Z,44.38
2018-05-29T12:05:48.406Z,44.68
2018-05-29T12:06:48.377Z,43.60
2018-05-29T12:07:48.409Z,43.90
2018-05-29T12:08:48.389Z,42.43
2018-05-29T12:09:48.382Z,42.74
2018-05-29T12:10:48.376Z,41.64
2018-05-29T12:11:48.364Z,42.62
2018-05-29T12:12:48.367Z,44.58
2018-05-29T12:13:48.357Z,44.17
2018-05-29T12:14:48.352Z,43.77
2018-05-29T12:15:48.354Z,44.76
2018-05-29T12:16:48.367Z,46.89
2018-05-29T12:17:48.362Z,47.18
2018-05-29T12:18:48.343Z,48.36
2018-05-29T12:19:48.340Z,46.40
2018-05-29T12:20:48.329Z,45.52
2018-05-29T12:21:48.333Z,45.52
2018-05-29T12:22:48.330Z,45.62
2018-05-29T12:23:48.327Z,45.89
2018-05-29T12:24:48.338Z,47.65
2018-05-29T12:25:48.310Z,45.69
2018-05-29T12:26:48.321Z,45.69
2018-05-29T12:27:48.308Z,45.79
2018-05-29T12:28:48.304Z,46.01
2018-05-29T12:29:48.326Z,45.23
2018-05-29T12:30:48.292Z,44.34
2018-05-29T12:31:48.294Z,44.32
2018-05-29T12:32:48.309Z,45.03
2018-05-29T12:33:48.308Z,46.50
2018-05-29T12:34:48.296Z,45.72
2018-05-29T12:35:48.290Z,44.83
2018-05-29T12:36:48.283Z,44.46
2018-05-29T12:37:48.273Z,44.76
2018-05-29T12:38:48.264Z,45.93
2018-05-29T12:39:48.269Z,44.76
2018-05-29T12:40:48.264Z,44.66
2018-05-29T12:41:48.261Z,45.86
2018-05-29T12:42:48.261Z,44.78
2018-05-29T12:43:48.256Z,44.48
2018-05-29T12:44:48.255Z,45.39
2018-05-29T12:45:48.244Z,46.08
2018-05-29T12:46:48.239Z,48.23
2018-05-29T12:47:48.242Z,46.56
2018-05-29T12:48:48.239Z,46.08
2018-05-29T12:49:48.230Z,46.86
2018-05-29T12:50:48.229Z,47.39
2018-05-29T12:51:48.227Z,46.31
2018-05-29T12:52:48.227Z,46.17
2018-05-29T12:53:48.222Z,43.33